Time;durP1;ratioP1;P1;durP2;ratioP2;P2;SDS_P1;SDS_P2;PMS_P1;PMS_P2;Temp;Humidity;BMP_temperature;BMP_pressure;BME280_temperature;BME280_humidity;BME280_pressure;Samples;Min_cycle;Max_cycle;Signal;HPM_P1;HPM_P2
2022/04/08 00:00:07;;;;;;;;;;;5.70;68.50;;;;;;5130752;27;20016;-71
2022/04/08 00:02:32;;;;;;;;;;;5.70;68.50;;;;;;5149132;27;19918;-71
2022/04/08 00:04:58;;;;;;;;;;;5.70;68.60;;;;;;5149348;27;19922;-72
2022/04/08 00:07:23;;;;;;;;;;;5.60;68.50;;;;;;5130668;27;19916;-72
2022/04/08 00:09:49;;;;;;;;;;;5.60;68.50;;;;;;5149229;27;19919;-72
2022/04/08 00:12:15;;;;;;;;;;;5.60;68.40;;;;;;5132538;27;19915;-72
2022/04/08 00:14:40;;;;;;;;;;;5.50;68.40;;;;;;5152879;27;20427;-74
2022/04/08 00:17:06;;;;;;;;;;;5.50;68.40;;;;;;5117244;27;19915;-74
2022/04/08 00:19:32;;;;;;;;;;;5.50;68.50;;;;;;5134191;27;19998;-73
2022/04/08 00:21:57;;;;;;;;;;;5.50;68.40;;;;;;5152973;27;19907;-74
2022/04/08 00:24:23;;;;;;;;;;;5.40;68.40;;;;;;5152747;27;19919;-74
2022/04/08 00:26:48;;;;;;;;;;;5.40;68.40;;;;;;5134093;27;19915;-74
2022/04/08 00:29:14;;;;;;;;;;;5.40;68.40;;;;;;5134128;27;19938;-74
2022/04/08 00:31:40;;;;;;;;;;;5.40;68.50;;;;;;5152648;27;19907;-72
2022/04/08 00:34:05;;;;;;;;;;;5.40;68.50;;;;;;5133939;27;20283;-72
2022/04/08 00:36:31;;;;;;;;;;;5.40;68.40;;;;;;5134032;27;19920;-72
2022/04/08 00:38:57;;;;;;;;;;;5.30;68.40;;;;;;5152533;27;19911;-71
2022/04/08 00:41:23;;;;;;;;;;;5.30;68.50;;;;;;5152416;27;20420;-72
2022/04/08 00:43:48;;;;;;;;;;;5.30;68.60;;;;;;5152365;27;19917;-73
2022/04/08 00:46:14;;;;;;;;;;;5.20;68.60;;;;;;5133834;27;19911;-73
2022/04/08 00:48:40;;;;;;;;;;;5.20;68.80;;;;;;5152232;27;19915;-73
2022/04/08 00:51:06;;;;;;;;;;;5.10;68.80;;;;;;5133497;27;19915;-73
2022/04/08 00:53:32;;;;;;;;;;;5.10;69.10;;;;;;5133647;27;19953;-72
2022/04/08 00:55:58;;;;;;;;;;;5.00;69.40;;;;;;5152269;27;19954;-72
2022/04/08 00:58:25;;;;;;;;;;;5.00;69.50;;;;;;5152275;27;19949;-72
2022/04/08 01:00:51;;;;;;;;;;;4.90;69.60;;;;;;5152232;27;20022;-73
2022/04/08 01:03:16;;;;;;;;;;;4.80;69.50;;;;;;5151992;27;19950;-72
2022/04/08 01:05:42;;;;;;;;;;;4.80;69.50;;;;;;5151944;27;19907;-72
2022/04/08 01:08:12;;;;;;;;;;;4.80;69.50;;;;;;5133417;27;19919;-73
2022/04/08 01:10:40;;;;;;;;;;;4.80;69.50;;;;;;5151926;27;19953;-73
2022/04/08 01:13:07;;;;;;;;;;;4.80;69.50;;;;;;5151767;27;19911;-72
2022/04/08 01:15:32;;;;;;;;;;;4.80;69.30;;;;;;5133356;27;19966;-72
2022/04/08 01:17:58;;;;;;;;;;;4.80;69.40;;;;;;5151712;27;20378;-73
2022/04/08 01:20:23;;;;;;;;;;;4.80;69.30;;;;;;5133051;27;19911;-72
2022/04/08 01:22:49;;;;;;;;;;;4.90;69.20;;;;;;5150942;27;20002;-72
2022/04/08 01:25:14;;;;;;;;;;;4.80;69.20;;;;;;5151323;27;19911;-72
2022/04/08 01:27:41;;;;;;;;;;;4.80;69.30;;;;;;5151679;27;20374;-72
2022/04/08 01:30:07;;;;;;;;;;;4.80;69.20;;;;;;5151321;27;19918;-73
2022/04/08 01:32:33;;;;;;;;;;;4.80;69.10;;;;;;5151137;27;19921;-73
2022/04/08 01:34:59;;;;;;;;;;;4.90;69.10;;;;;;5151443;27;20356;-73
2022/04/08 01:37:25;;;;;;;;;;;4.80;69.00;;;;;;5151440;27;19943;-73
2022/04/08 01:39:50;;;;;;;;;;;4.80;68.90;;;;;;5151411;27;20001;-73
2022/04/08 01:42:21;;;;;;;;;;;4.70;68.80;;;;;;5151317;27;19918;-73
2022/04/08 01:44:47;;;;;;;;;;;4.70;69.00;;;;;;5151285;27;19911;-72
2022/04/08 01:47:13;;;;;;;;;;;4.60;69.10;;;;;;5151136;27;19907;-72
2022/04/08 01:49:39;;;;;;;;;;;4.60;69.10;;;;;;5150858;27;19944;-72
2022/04/08 01:52:05;;;;;;;;;;;4.60;69.10;;;;;;5150949;27;19911;-73
2022/04/08 01:54:30;;;;;;;;;;;4.60;69.20;;;;;;5150940;27;19941;-72
2022/04/08 01:56:56;;;;;;;;;;;4.60;69.20;;;;;;5150963;27;20307;-73
2022/04/08 01:59:22;;;;;;;;;;;4.60;69.10;;;;;;5150903;27;20003;-73
2022/04/08 02:01:47;;;;;;;;;;;4.50;69.00;;;;;;5132226;27;19919;-72
2022/04/08 02:04:13;;;;;;;;;;;4.50;69.00;;;;;;5150800;27;20319;-73
2022/04/08 02:06:40;;;;;;;;;;;4.40;68.80;;;;;;5132616;27;19963;-72
2022/04/08 02:09:07;;;;;;;;;;;4.40;68.70;;;;;;5132630;27;19912;-72
2022/04/08 02:11:33;;;;;;;;;;;4.30;68.90;;;;;;5150628;27;19995;-73
2022/04/08 02:13:59;;;;;;;;;;;4.30;69.00;;;;;;5150776;27;19950;-73
2022/04/08 02:16:24;;;;;;;;;;;4.30;69.10;;;;;;5150659;27;19907;-72
2022/04/08 02:18:50;;;;;;;;;;;4.30;68.90;;;;;;5150708;27;19918;-73
2022/04/08 02:21:22;;;;;;;;;;;4.30;68.90;;;;;;5150336;27;19915;-73
2022/04/08 02:23:51;;;;;;;;;;;4.30;69.00;;;;;;5150573;27;19926;-73
2022/04/08 02:26:17;;;;;;;;;;;4.30;69.10;;;;;;5150467;27;19950;-72
2022/04/08 02:28:43;;;;;;;;;;;4.30;69.10;;;;;;5150466;27;19970;-73
2022/04/08 02:31:09;;;;;;;;;;;4.30;69.20;;;;;;5150141;27;19915;-73
2022/04/08 02:33:34;;;;;;;;;;;4.20;69.10;;;;;;5150088;27;19926;-73
2022/04/08 02:36:00;;;;;;;;;;;4.20;69.00;;;;;;5150335;27;19980;-73
2022/04/08 02:38:26;;;;;;;;;;;4.30;69.00;;;;;;5150174;27;20322;-73
2022/04/08 02:40:52;;;;;;;;;;;4.20;68.90;;;;;;5131629;27;19960;-73
2022/04/08 02:43:17;;;;;;;;;;;4.10;68.90;;;;;;5150206;27;19936;-73
2022/04/08 02:45:43;;;;;;;;;;;4.00;69.20;;;;;;5150172;27;20278;-73
2022/04/08 02:48:08;;;;;;;;;;;4.00;69.30;;;;;;5150042;27;20018;-73
2022/04/08 02:50:34;;;;;;;;;;;4.00;69.30;;;;;;5149859;27;19929;-73
2022/04/08 02:52:59;;;;;;;;;;;4.00;69.40;;;;;;5150016;27;19911;-73
2022/04/08 02:55:25;;;;;;;;;;;3.90;69.60;;;;;;5149999;27;19912;-73
2022/04/08 02:57:51;;;;;;;;;;;3.90;69.10;;;;;;5149821;27;19911;-73
2022/04/08 03:00:17;;;;;;;;;;;3.90;69.10;;;;;;5131412;27;20285;-73
2022/04/08 03:02:43;;;;;;;;;;;3.80;69.20;;;;;;5131187;27;19913;-73
2022/04/08 03:05:09;;;;;;;;;;;3.80;69.20;;;;;;5131126;27;19947;-73
2022/04/08 03:07:35;;;;;;;;;;;3.80;69.20;;;;;;5149855;27;19953;-73
2022/04/08 03:10:04;;;;;;;;;;;3.90;69.40;;;;;;5131034;27;19922;-73
2022/04/08 03:12:30;;;;;;;;;;;3.90;69.20;;;;;;5149785;27;20383;-73
2022/04/08 03:14:56;;;;;;;;;;;3.90;69.20;;;;;;5131013;27;19911;-73
2022/04/08 03:17:22;;;;;;;;;;;3.90;69.20;;;;;;5114146;27;19934;-73
2022/04/08 03:19:48;;;;;;;;;;;3.80;69.10;;;;;;5149646;27;19924;-73
2022/04/08 03:22:13;;;;;;;;;;;3.70;69.00;;;;;;5149756;27;19918;-73
2022/04/08 03:24:39;;;;;;;;;;;3.70;69.00;;;;;;5149684;27;19907;-73
2022/04/08 03:27:04;;;;;;;;;;;3.60;68.90;;;;;;5149688;27;20317;-73
2022/04/08 03:29:30;;;;;;;;;;;3.60;69.10;;;;;;5149476;27;19919;-73
2022/04/08 03:31:55;;;;;;;;;;;3.50;69.20;;;;;;5149477;27;19915;-73
2022/04/08 03:34:21;;;;;;;;;;;3.50;69.20;;;;;;5149397;27;20010;-73
2022/04/08 03:36:47;;;;;;;;;;;3.40;69.30;;;;;;5149633;27;19911;-73
2022/04/08 03:39:13;;;;;;;;;;;3.40;69.50;;;;;;5131094;27;19911;-73
2022/04/08 03:41:39;;;;;;;;;;;3.40;69.50;;;;;;5149485;27;19993;-73
2022/04/08 03:44:05;;;;;;;;;;;3.50;69.50;;;;;;5149510;27;19911;-73
2022/04/08 03:46:30;;;;;;;;;;;3.50;69.40;;;;;;5150327;27;19918;-73
2022/04/08 03:48:56;;;;;;;;;;;3.60;69.30;;;;;;5153630;27;20318;-73
2022/04/08 03:51:22;;;;;;;;;;;3.60;69.20;;;;;;5153330;27;19917;-73
2022/04/08 03:53:47;;;;;;;;;;;3.60;69.00;;;;;;5153496;27;19915;-73
2022/04/08 03:56:13;;;;;;;;;;;3.60;69.00;;;;;;5153303;27;19911;-73
2022/04/08 03:58:38;;;;;;;;;;;3.50;69.00;;;;;;5134802;27;19911;-73
2022/04/08 04:01:04;;;;;;;;;;;3.50;69.20;;;;;;5153198;27;20010;-73
2022/04/08 04:03:29;;;;;;;;;;;3.40;69.20;;;;;;5153239;27;19918;-73
2022/04/08 04:05:55;;;;;;;;;;;3.40;69.40;;;;;;5152960;27;19913;-73
2022/04/08 04:08:20;;;;;;;;;;;3.50;69.40;;;;;;5153220;27;19911;-73
2022/04/08 04:10:46;;;;;;;;;;;3.50;69.30;;;;;;5153046;27;19915;-73
2022/04/08 04:13:12;;;;;;;;;;;3.50;69.20;;;;;;5153021;27;20302;-73
2022/04/08 04:15:38;;;;;;;;;;;3.50;69.00;;;;;;5153082;27;19914;-73
2022/04/08 04:18:04;;;;;;;;;;;3.50;68.90;;;;;;5153054;27;20017;-73
2022/04/08 04:20:29;;;;;;;;;;;3.50;69.00;;;;;;5152895;27;19907;-73
2022/04/08 04:22:55;;;;;;;;;;;3.40;69.00;;;;;;5152891;27;19911;-73
2022/04/08 04:25:21;;;;;;;;;;;3.30;69.10;;;;;;5152903;27;20369;-73
2022/04/08 04:27:46;;;;;;;;;;;3.30;69.20;;;;;;5152852;27;19918;-73
2022/04/08 04:30:12;;;;;;;;;;;3.30;69.30;;;;;;5134125;27;19923;-73
2022/04/08 04:32:37;;;;;;;;;;;3.40;69.30;;;;;;5152485;27;19911;-73
2022/04/08 04:35:06;;;;;;;;;;;3.40;69.20;;;;;;5152608;27;19911;-73
2022/04/08 04:37:35;;;;;;;;;;;3.40;69.10;;;;;;5152643;27;19955;-73
2022/04/08 04:40:01;;;;;;;;;;;3.50;69.50;;;;;;5152625;27;19911;-73
2022/04/08 04:42:28;;;;;;;;;;;3.50;69.00;;;;;;5152838;27;19930;-73
2022/04/08 04:44:57;;;;;;;;;;;3.50;68.90;;;;;;5133974;27;20306;-73
2022/04/08 04:47:23;;;;;;;;;;;3.40;68.80;;;;;;5152350;27;19940;-73
2022/04/08 04:49:48;;;;;;;;;;;3.30;68.80;;;;;;5152446;27;20358;-73
2022/04/08 04:52:14;;;;;;;;;;;3.30;68.90;;;;;;5152235;27;19918;-73
2022/04/08 04:54:41;;;;;;;;;;;3.30;69.10;;;;;;5152211;27;19922;-73
2022/04/08 04:57:06;;;;;;;;;;;3.30;69.20;;;;;;5152104;27;19911;-73
2022/04/08 04:59:32;;;;;;;;;;;3.30;69.40;;;;;;5150852;27;20304;-73
2022/04/08 05:01:57;;;;;;;;;;;3.30;69.30;;;;;;5152116;27;20281;-73
2022/04/08 05:04:23;;;;;;;;;;;3.30;69.40;;;;;;5152150;27;19923;-73
2022/04/08 05:06:48;;;;;;;;;;;3.30;69.40;;;;;;5151993;27;19911;-73
2022/04/08 05:09:14;;;;;;;;;;;3.30;69.60;;;;;;5152296;27;20318;-73
2022/04/08 05:11:40;;;;;;;;;;;3.30;69.60;;;;;;5151803;27;20022;-73
2022/04/08 05:14:05;;;;;;;;;;;3.20;69.60;;;;;;5151825;27;19912;-73
2022/04/08 05:16:31;;;;;;;;;;;3.20;69.60;;;;;;5151747;27;19915;-73
2022/04/08 05:18:57;;;;;;;;;;;3.10;69.70;;;;;;5151783;27;19916;-73
2022/04/08 05:21:22;;;;;;;;;;;3.10;69.80;;;;;;5151634;27;19979;-73
2022/04/08 05:23:48;;;;;;;;;;;3.00;69.80;;;;;;5151729;27;20126;-73
2022/04/08 05:26:14;;;;;;;;;;;3.00;70.00;;;;;;5151648;27;19948;-73
2022/04/08 05:28:40;;;;;;;;;;;3.00;70.10;;;;;;5151484;27;19915;-73
2022/04/08 05:31:05;;;;;;;;;;;2.90;70.10;;;;;;5132552;27;19930;-73
2022/04/08 05:33:31;;;;;;;;;;;2.90;70.20;;;;;;5151352;27;19958;-73
2022/04/08 05:35:57;;;;;;;;;;;2.90;70.20;;;;;;5151321;27;19936;-73
2022/04/08 05:38:22;;;;;;;;;;;3.00;70.30;;;;;;5151473;27;19936;-73
2022/04/08 05:40:49;;;;;;;;;;;3.00;70.20;;;;;;5151207;27;19979;-73
2022/04/08 05:43:15;;;;;;;;;;;3.00;70.20;;;;;;5151227;27;20358;-73
2022/04/08 05:45:41;;;;;;;;;;;3.00;70.20;;;;;;5151021;27;20241;-73
2022/04/08 05:48:07;;;;;;;;;;;3.00;70.30;;;;;;5151217;27;19915;-73
2022/04/08 05:50:33;;;;;;;;;;;3.00;70.50;;;;;;5151060;27;20384;-72
2022/04/08 05:52:58;;;;;;;;;;;3.00;70.50;;;;;;5150636;27;19911;-73
2022/04/08 05:55:24;;;;;;;;;;;2.90;70.60;;;;;;5150773;27;20359;-73
2022/04/08 05:57:53;;;;;;;;;;;2.90;71.40;;;;;;5150963;27;19938;-73
2022/04/08 06:00:20;;;;;;;;;;;2.90;71.00;;;;;;5132242;27;19914;-73
2022/04/08 06:02:47;;;;;;;;;;;2.90;71.20;;;;;;5150672;27;19942;-73
2022/04/08 06:05:18;;;;;;;;;;;2.90;71.50;;;;;;5150525;27;19907;-72
2022/04/08 06:07:45;;;;;;;;;;;2.90;71.50;;;;;;5131856;27;19995;-73
2022/04/08 06:10:10;;;;;;;;;;;2.90;71.60;;;;;;5149763;27;19911;-73
2022/04/08 06:12:36;;;;;;;;;;;2.90;71.50;;;;;;5131720;27;19934;-73
2022/04/08 06:15:02;;;;;;;;;;;2.90;71.60;;;;;;5150362;27;19912;-73
2022/04/08 06:17:37;;;;;;;;;;;2.90;71.70;;;;;;5150315;27;20007;-73
2022/04/08 06:20:04;;;;;;;;;;;2.90;71.70;;;;;;5150123;27;20282;-73
2022/04/08 06:22:29;;;;;;;;;;;3.00;71.80;;;;;;5150214;27;19938;-73
2022/04/08 06:24:55;;;;;;;;;;;3.00;71.80;;;;;;5150217;27;20441;-72
2022/04/08 06:27:20;;;;;;;;;;;3.10;71.80;;;;;;5150197;27;20441;-73
2022/04/08 06:29:46;;;;;;;;;;;3.10;71.80;;;;;;5149934;27;20277;-73
2022/04/08 06:32:11;;;;;;;;;;;3.20;71.70;;;;;;5149765;27;19953;-73
2022/04/08 06:34:37;;;;;;;;;;;3.20;71.80;;;;;;5150076;27;20460;-73
2022/04/08 06:37:02;;;;;;;;;;;3.20;71.80;;;;;;5149944;27;20333;-73
2022/04/08 06:39:28;;;;;;;;;;;3.20;72.00;;;;;;5131111;27;20265;-72
2022/04/08 06:41:54;;;;;;;;;;;3.30;72.00;;;;;;5150039;27;19907;-72
2022/04/08 06:44:19;;;;;;;;;;;3.40;72.10;;;;;;5149940;27;20413;-73
2022/04/08 06:46:45;;;;;;;;;;;3.40;72.10;;;;;;5149726;27;19934;-73
2022/04/08 06:49:10;;;;;;;;;;;3.50;72.00;;;;;;5149744;27;19918;-72
2022/04/08 06:51:36;;;;;;;;;;;3.60;72.10;;;;;;5149493;27;20385;-74
2022/04/08 06:54:01;;;;;;;;;;;3.70;72.10;;;;;;5149526;27;19977;-73
2022/04/08 06:56:28;;;;;;;;;;;3.80;72.10;;;;;;5149355;27;19967;-72
2022/04/08 06:58:54;;;;;;;;;;;3.90;72.00;;;;;;5149374;27;19914;-74
2022/04/08 07:01:19;;;;;;;;;;;3.90;72.00;;;;;;5149519;27;20034;-73
2022/04/08 07:03:45;;;;;;;;;;;4.00;72.00;;;;;;5149422;27;19960;-74
2022/04/08 07:06:10;;;;;;;;;;;4.00;72.20;;;;;;5149509;27;19958;-73
2022/04/08 07:08:36;;;;;;;;;;;4.20;72.30;;;;;;5130490;27;19911;-73
2022/04/08 07:11:01;;;;;;;;;;;4.30;72.50;;;;;;5148897;27;19911;-73
2022/04/08 07:13:27;;;;;;;;;;;4.60;72.40;;;;;;5148912;27;19911;-74
2022/04/08 07:15:52;;;;;;;;;;;4.80;71.90;;;;;;5130872;27;20269;-73
2022/04/08 07:18:18;;;;;;;;;;;4.90;71.90;;;;;;5149704;27;19912;-74
2022/04/08 07:20:44;;;;;;;;;;;5.00;71.90;;;;;;5149221;27;19923;-74
2022/04/08 07:23:10;;;;;;;;;;;5.20;72.20;;;;;;5153076;27;19919;-74
2022/04/08 07:25:35;;;;;;;;;;;5.40;72.20;;;;;;5153480;27;19922;-74
2022/04/08 07:28:01;;;;;;;;;;;5.60;72.40;;;;;;5153500;27;20345;-74
2022/04/08 07:30:28;;;;;;;;;;;5.90;72.20;;;;;;5153275;27;20316;-73
2022/04/08 07:32:54;;;;;;;;;;;6.10;71.90;;;;;;5153072;27;20425;-73
2022/04/08 07:35:20;;;;;;;;;;;6.10;71.80;;;;;;5153448;27;19938;-73
2022/04/08 07:37:46;;;;;;;;;;;6.20;71.90;;;;;;5153409;27;19924;-73
2022/04/08 07:40:12;;;;;;;;;;;6.30;72.00;;;;;;5153239;27;19919;-73
2022/04/08 07:42:38;;;;;;;;;;;6.50;72.50;;;;;;5152926;27;20287;-73
2022/04/08 07:45:05;;;;;;;;;;;6.70;72.50;;;;;;5152918;27;19911;-73
2022/04/08 07:47:30;;;;;;;;;;;7.00;73.00;;;;;;5153083;27;19907;-73
2022/04/08 07:50:14;;;;;;;;;;;7.70;74.40;;;;;;5152786;27;19922;-73
2022/04/08 07:52:40;;;;;;;;;;;8.80;74.40;;;;;;5152093;27;20029;-73
2022/04/08 07:55:06;;;;;;;;;;;9.90;74.30;;;;;;5151959;27;19918;-73
2022/04/08 07:57:32;;;;;;;;;;;11.30;75.10;;;;;;5132665;27;19958;-73
2022/04/08 07:59:58;;;;;;;;;;;12.80;74.70;;;;;;5150559;27;19997;-73
2022/04/08 08:02:26;;;;;;;;;;;13.90;74.20;;;;;;5114953;27;20640;-74
2022/04/08 08:04:52;;;;;;;;;;;14.90;74.00;;;;;;5151717;27;19915;-74
2022/04/08 08:07:17;;;;;;;;;;;15.90;74.10;;;;;;5152323;27;19918;-74
2022/04/08 08:09:43;;;;;;;;;;;16.80;73.80;;;;;;5151213;27;19967;-73
2022/04/08 08:12:09;;;;;;;;;;;17.60;73.70;;;;;;5151575;27;19925;-74
2022/04/08 08:14:35;;;;;;;;;;;18.10;73.00;;;;;;5151641;27;19915;-74
2022/04/08 08:17:00;;;;;;;;;;;18.50;73.10;;;;;;5133033;27;20028;-74
2022/04/08 08:19:27;;;;;;;;;;;18.90;73.20;;;;;;5151631;27;20294;-74
2022/04/08 08:21:53;;;;;;;;;;;19.00;72.30;;;;;;5151691;27;19912;-74
2022/04/08 08:24:18;;;;;;;;;;;19.00;73.20;;;;;;5133182;27;19918;-74
2022/04/08 08:26:44;;;;;;;;;;;18.90;73.50;;;;;;5151139;27;19918;-74
2022/04/08 08:29:10;;;;;;;;;;;18.70;73.90;;;;;;5150514;27;19990;-73
2022/04/08 08:31:35;;;;;;;;;;;18.80;74.90;;;;;;5151343;27;19923;-71
2022/04/08 08:34:01;;;;;;;;;;;19.20;74.90;;;;;;5150253;27;19930;-73
2022/04/08 08:36:26;;;;;;;;;;;19.70;74.30;;;;;;5151187;27;19907;-73
2022/04/08 08:38:52;;;;;;;;;;;20.00;73.70;;;;;;5150983;27;19992;-73
2022/04/08 08:41:18;;;;;;;;;;;20.20;73.80;;;;;;5150709;27;21558;-73
2022/04/08 08:43:44;;;;;;;;;;;20.30;73.90;;;;;;5148475;27;19994;-72
2022/04/08 08:46:10;;;;;;;;;;;20.40;73.90;;;;;;5150909;27;20449;-73
2022/04/08 08:48:37;;;;;;;;;;;20.70;74.70;;;;;;5150885;27;19911;-73
2022/04/08 08:51:05;;;;;;;;;;;21.00;74.50;;;;;;5150816;27;19915;-72
2022/04/08 08:53:31;;;;;;;;;;;21.20;74.20;;;;;;5150855;27;19907;-72
2022/04/08 08:55:57;;;;;;;;;;;21.20;74.00;;;;;;5150767;27;19965;-72
2022/04/08 08:58:23;;;;;;;;;;;21.40;74.10;;;;;;5151178;27;20381;-72
2022/04/08 09:00:49;;;;;;;;;;;21.60;74.30;;;;;;5151196;27;19956;-73
2022/04/08 09:03:15;;;;;;;;;;;21.80;74.00;;;;;;5151184;27;19908;-72
2022/04/08 09:05:41;;;;;;;;;;;21.60;73.80;;;;;;5151806;27;20376;-72
2022/04/08 09:08:08;;;;;;;;;;;21.50;73.90;;;;;;5151477;27;19913;-72
2022/04/08 09:10:43;;;;;;;;;;;21.20;73.70;;;;;;5132356;27;20029;-72
2022/04/08 09:13:09;;;;;;;;;;;21.00;73.50;;;;;;5151293;27;19918;-72
2022/04/08 09:15:39;;;;;;;;;;;21.20;74.30;;;;;;5148449;27;19911;-72
2022/04/08 09:18:11;;;;;;;;;;;21.40;74.50;;;;;;5151661;27;19950;-72
2022/04/08 09:20:41;;;;;;;;;;;21.50;74.20;;;;;;5148984;27;19911;-73
2022/04/08 09:23:08;;;;;;;;;;;21.60;74.20;;;;;;5151154;27;20043;-72
2022/04/08 09:25:34;;;;;;;;;;;21.70;73.70;;;;;;5151373;27;19907;-73
2022/04/08 09:28:05;;;;;;;;;;;21.70;73.30;;;;;;5151595;27;19915;-75
2022/04/08 09:30:30;;;;;;;;;;;21.50;73.10;;;;;;5151730;27;20258;-74
2022/04/08 09:32:56;;;;;;;;;;;21.70;73.70;;;;;;5151562;27;20063;-74
2022/04/08 09:35:24;;;;;;;;;;;21.90;72.70;;;;;;5151796;27;19919;-74
2022/04/08 09:38:00;;;;;;;;;;;22.10;72.50;;;;;;5133668;27;19949;-75
2022/04/08 09:40:29;;;;;;;;;;;22.10;72.20;;;;;;5113643;27;19911;-74
2022/04/08 09:42:54;;;;;;;;;;;22.10;71.70;;;;;;5134090;27;20006;-74
2022/04/08 09:45:29;;;;;;;;;;;21.70;71.10;;;;;;5132438;27;19979;-73
2022/04/08 09:47:58;;;;;;;;;;;21.60;72.10;;;;;;5148292;27;19912;-73
2022/04/08 09:50:26;;;;;;;;;;;21.90;71.60;;;;;;5133674;27;19915;-73
2022/04/08 09:52:53;;;;;;;;;;;21.80;71.20;;;;;;5133730;27;19919;-73
2022/04/08 09:55:19;;;;;;;;;;;22.00;70.70;;;;;;5132540;27;20355;-73
2022/04/08 09:57:46;;;;;;;;;;;22.00;70.00;;;;;;5150822;27;19929;-74
2022/04/08 10:00:12;;;;;;;;;;;22.00;70.10;;;;;;5131680;27;20358;-74
2022/04/08 10:02:44;;;;;;;;;;;22.20;69.80;;;;;;5131429;27;20281;-73
2022/04/08 10:05:10;;;;;;;;;;;22.20;68.80;;;;;;5150613;27;19956;-74
2022/04/08 10:07:36;;;;;;;;;;;21.40;67.50;;;;;;5150183;27;20343;-75
2022/04/08 10:10:02;;;;;;;;;;;21.10;68.70;;;;;;5150747;27;19915;-75
2022/04/08 10:12:35;;;;;;;;;;;21.80;68.70;;;;;;5131787;27;19972;-74
2022/04/08 10:15:00;;;;;;;;;;;21.20;65.90;;;;;;5148605;27;19956;-74
2022/04/08 10:17:26;;;;;;;;;;;19.90;65.90;;;;;;5151142;27;19907;-74
2022/04/08 10:19:52;;;;;;;;;;;18.80;65.50;;;;;;5150836;27;19961;-74
2022/04/08 10:22:19;;;;;;;;;;;18.10;66.90;;;;;;5131562;27;19942;-74
2022/04/08 10:24:52;;;;;;;;;;;17.80;67.10;;;;;;5150143;27;19911;-73
2022/04/08 10:27:26;;;;;;;;;;;17.30;66.20;;;;;;5131896;27;19940;-73
2022/04/08 10:29:55;;;;;;;;;;;16.80;66.20;;;;;;5128840;27;20009;-76
2022/04/08 10:32:21;;;;;;;;;;;16.50;66.70;;;;;;5150405;27;19922;-74
2022/04/08 10:34:47;;;;;;;;;;;16.10;65.60;;;;;;5118995;27;19988;-73
2022/04/08 10:37:24;;;;;;;;;;;15.60;65.80;;;;;;5118493;27;20362;-74
2022/04/08 10:39:57;;;;;;;;;;;15.30;65.70;;;;;;5114814;27;19908;-74
2022/04/08 10:42:22;;;;;;;;;;;14.80;65.00;;;;;;5117716;27;19916;-73
2022/04/08 10:44:48;;;;;;;;;;;14.20;65.00;;;;;;5119897;27;19972;-73
2022/04/08 10:47:18;;;;;;;;;;;13.60;65.10;;;;;;5117913;27;20257;-73
2022/04/08 10:49:50;;;;;;;;;;;13.20;65.10;;;;;;5118079;27;20531;-75
2022/04/08 10:52:18;;;;;;;;;;;13.20;67.00;;;;;;5116615;27;19946;-74
2022/04/08 10:54:44;;;;;;;;;;;14.50;69.00;;;;;;5115581;27;19995;-74
2022/04/08 10:57:09;;;;;;;;;;;16.10;69.90;;;;;;5113821;27;20094;-73
2022/04/08 10:59:35;;;;;;;;;;;18.00;70.00;;;;;;5107314;28;19977;-73
2022/04/08 11:02:05;;;;;;;;;;;19.50;68.20;;;;;;5108428;28;19916;-74
2022/04/08 11:04:30;;;;;;;;;;;19.70;65.80;;;;;;5108359;28;20396;-71
2022/04/08 11:06:56;;;;;;;;;;;18.80;63.00;;;;;;5108830;28;19939;-75
2022/04/08 11:09:23;;;;;;;;;;;17.30;62.10;;;;;;5107114;28;19923;-73
2022/04/08 11:11:52;;;;;;;;;;;15.80;62.30;;;;;;5107857;28;19911;-75
2022/04/08 11:14:18;;;;;;;;;;;14.60;63.00;;;;;;5105703;28;19911;-75
2022/04/08 11:16:46;;;;;;;;;;;13.70;63.80;;;;;;5108280;28;20364;-75
2022/04/08 11:19:12;;;;;;;;;;;13.10;64.10;;;;;;5109283;28;19918;-74
2022/04/08 11:21:42;;;;;;;;;;;12.70;64.60;;;;;;5108643;28;19916;-74
2022/04/08 11:24:13;;;;;;;;;;;12.40;64.80;;;;;;5101837;28;19908;-75
2022/04/08 11:26:50;;;;;;;;;;;12.30;65.10;;;;;;5108338;28;19916;-76
2022/04/08 11:29:16;;;;;;;;;;;12.40;65.30;;;;;;5105420;28;19996;-74
2022/04/08 11:31:43;;;;;;;;;;;12.90;66.20;;;;;;5108381;28;20015;-74
2022/04/08 11:34:16;;;;;;;;;;;13.20;65.70;;;;;;5121486;28;19919;-75
2022/04/08 11:36:44;;;;;;;;;;;13.40;65.30;;;;;;5128845;28;19908;-74
2022/04/08 11:39:10;;;;;;;;;;;13.20;64.60;;;;;;5128885;28;19907;-75
2022/04/08 11:41:42;;;;;;;;;;;13.00;64.50;;;;;;5128550;28;20280;-75
2022/04/08 11:44:12;;;;;;;;;;;12.90;64.30;;;;;;5127128;28;19968;-75
2022/04/08 11:46:37;;;;;;;;;;;12.90;64.10;;;;;;5128430;28;19918;-75
2022/04/08 11:49:04;;;;;;;;;;;12.90;64.00;;;;;;5128918;28;19912;-75
2022/04/08 11:51:30;;;;;;;;;;;13.00;64.00;;;;;;5129109;28;19915;-76
2022/04/08 11:54:00;;;;;;;;;;;13.30;64.80;;;;;;5126982;28;19933;-76
2022/04/08 11:56:26;;;;;;;;;;;13.90;65.50;;;;;;5125930;28;19914;-75
2022/04/08 11:59:09;;;;;;;;;;;14.50;65.80;;;;;;5128674;28;19942;-78
2022/04/08 12:01:37;;;;;;;;;;;15.10;65.70;;;;;;5128198;28;19923;-78
2022/04/08 12:04:04;;;;;;;;;;;15.70;66.70;;;;;;5127028;28;19907;-77
2022/04/08 12:06:38;;;;;;;;;;;16.80;68.00;;;;;;5127202;28;20365;-77
2022/04/08 12:09:04;;;;;;;;;;;17.50;66.60;;;;;;5126432;27;19919;-75
2022/04/08 12:11:31;;;;;;;;;;;18.10;66.90;;;;;;5131555;27;20325;-74
2022/04/08 12:13:57;;;;;;;;;;;18.20;63.60;;;;;;5132455;27;19919;-74
2022/04/08 12:16:23;;;;;;;;;;;17.10;62.00;;;;;;5131696;27;19911;-74
2022/04/08 12:18:51;;;;;;;;;;;15.90;61.70;;;;;;5129969;27;19920;-74
2022/04/08 12:21:35;;;;;;;;;;;14.70;61.90;;;;;;5130370;27;20006;-74
2022/04/08 12:24:03;;;;;;;;;;;13.60;62.40;;;;;;5130693;27;19943;-74
2022/04/08 12:26:33;;;;;;;;;;;12.90;63.30;;;;;;5131836;27;19982;-73
2022/04/08 12:29:05;;;;;;;;;;;12.60;63.90;;;;;;5131915;27;20426;-78
2022/04/08 12:31:31;;;;;;;;;;;12.50;63.90;;;;;;5132391;27;20355;-75
2022/04/08 12:33:57;;;;;;;;;;;12.60;64.00;;;;;;5146091;27;19928;-75
2022/04/08 12:36:23;;;;;;;;;;;13.30;65.80;;;;;;5134231;27;19907;-74
2022/04/08 12:38:48;;;;;;;;;;;14.50;66.50;;;;;;5153121;27;19911;-75
2022/04/08 12:41:14;;;;;;;;;;;15.80;66.50;;;;;;5153025;27;20010;-75
2022/04/08 12:43:40;;;;;;;;;;;16.60;66.00;;;;;;5153092;27;20354;-74
2022/04/08 12:46:06;;;;;;;;;;;16.60;63.50;;;;;;5152530;27;20433;-75
2022/04/08 12:48:32;;;;;;;;;;;16.00;62.90;;;;;;5152359;27;19915;-75
2022/04/08 12:50:59;;;;;;;;;;;15.40;63.30;;;;;;5134279;27;19950;-73
2022/04/08 12:53:28;;;;;;;;;;;14.90;63.20;;;;;;5134182;27;19914;-74
2022/04/08 12:55:55;;;;;;;;;;;14.70;63.70;;;;;;5152951;27;19914;-75
2022/04/08 12:58:21;;;;;;;;;;;15.00;63.80;;;;;;5152775;27;19918;-75
2022/04/08 13:00:47;;;;;;;;;;;15.40;63.20;;;;;;5152749;27;19912;-74
2022/04/08 13:03:12;;;;;;;;;;;15.80;63.30;;;;;;5133715;27;19919;-75
2022/04/08 13:05:38;;;;;;;;;;;16.40;63.00;;;;;;5152554;27;19907;-75
2022/04/08 13:08:03;;;;;;;;;;;16.90;63.10;;;;;;5152475;27;19964;-77
2022/04/08 13:10:29;;;;;;;;;;;17.10;62.50;;;;;;5152959;27;20298;-75
2022/04/08 13:12:54;;;;;;;;;;;16.30;60.60;;;;;;5152758;27;19907;-76
2022/04/08 13:15:20;;;;;;;;;;;15.00;60.00;;;;;;5152587;27;19918;-75
2022/04/08 13:17:46;;;;;;;;;;;13.70;60.70;;;;;;5152519;27;19950;-74
2022/04/08 13:20:16;;;;;;;;;;;12.90;61.60;;;;;;5151287;27;19915;-76
2022/04/08 13:22:41;;;;;;;;;;;12.30;62.20;;;;;;5152543;27;19918;-76
2022/04/08 13:25:07;;;;;;;;;;;11.90;62.50;;;;;;5134196;27;19915;-76
2022/04/08 13:27:32;;;;;;;;;;;11.70;62.60;;;;;;5152626;27;19956;-77
2022/04/08 13:29:58;;;;;;;;;;;11.50;63.00;;;;;;5134027;27;19915;-77
2022/04/08 13:32:24;;;;;;;;;;;11.90;64.50;;;;;;5134122;27;20295;-76
2022/04/08 13:34:53;;;;;;;;;;;12.60;65.00;;;;;;5151850;27;19935;-75
2022/04/08 13:37:19;;;;;;;;;;;13.10;64.70;;;;;;5151595;27;19922;-75
2022/04/08 13:39:45;;;;;;;;;;;13.60;65.40;;;;;;5132417;27;20341;-75
2022/04/08 13:42:13;;;;;;;;;;;13.80;64.30;;;;;;5150612;27;20121;-76
2022/04/08 13:44:38;;;;;;;;;;;13.80;63.70;;;;;;5150925;27;20012;-75
2022/04/08 13:47:04;;;;;;;;;;;13.80;64.10;;;;;;5151023;27;19945;-75
2022/04/08 13:49:30;;;;;;;;;;;13.90;63.40;;;;;;5151350;27;20346;-75
2022/04/08 13:51:55;;;;;;;;;;;13.80;62.40;;;;;;5151325;27;19966;-76
2022/04/08 13:54:21;;;;;;;;;;;13.60;62.40;;;;;;5132186;27;19991;-75
2022/04/08 13:56:47;;;;;;;;;;;13.50;62.20;;;;;;5132630;27;20011;-75
2022/04/08 13:59:12;;;;;;;;;;;13.40;62.20;;;;;;5151114;27;19994;-75
2022/04/08 14:01:38;;;;;;;;;;;13.40;62.10;;;;;;5150799;27;20411;-74
2022/04/08 14:04:06;;;;;;;;;;;13.50;62.20;;;;;;5150994;27;20333;-74
2022/04/08 14:06:32;;;;;;;;;;;13.40;61.40;;;;;;5151517;27;20268;-75
2022/04/08 14:08:57;;;;;;;;;;;13.00;60.80;;;;;;5151070;27;20372;-76
2022/04/08 14:11:23;;;;;;;;;;;12.30;60.60;;;;;;5151599;27;19976;-77
2022/04/08 14:13:48;;;;;;;;;;;11.40;61.30;;;;;;5152765;27;20390;-77
2022/04/08 14:16:14;;;;;;;;;;;10.80;61.80;;;;;;5151482;27;19951;-76
2022/04/08 14:18:39;;;;;;;;;;;10.60;62.20;;;;;;5112366;27;19915;-75